Time;durP1;ratioP1;P1;durP2;ratioP2;P2;SDS_P1;SDS_P2;PMS_P1;PMS_P2;Temp;Humidity;BMP_temperature;BMP_pressure;BME280_temperature;BME280_humidity;BME280_pressure;Samples;Min_cycle;Max_cycle;Signal;HPM_P1;HPM_P2
2021/11/12 00:14:30;;;;;;;44.25;24.25;;;7.10;99.90;;;8.09;100.00;101195.13;5052581;28;20036;-82
2021/11/12 00:16:58;;;;;;;42.38;25.35;;;7.10;99.90;;;8.07;100.00;101188.25;5035390;28;20062;-81
2021/11/12 00:19:24;;;;;;;52.35;28.10;;;7.10;99.90;;;8.10;100.00;101187.59;5054572;28;20021;-81
2021/11/12 00:21:50;;;;;;;53.72;25.83;;;7.10;99.90;;;8.08;100.00;101181.56;5056813;28;20139;-79
2021/11/12 00:24:15;;;;;;;44.83;23.77;;;7.10;99.90;;;8.04;100.00;101181.41;5056948;28;20449;-81
2021/11/12 00:26:41;;;;;;;55.97;29.38;;;7.10;99.90;;;8.10;100.00;101174.53;5057142;28;20056;-81
2021/11/12 00:29:10;;;;;;;50.08;26.50;;;7.10;99.90;;;8.13;100.00;101179.44;5057387;28;20417;-80
2021/11/12 00:31:45;;;;;;;41.67;24.45;;;7.10;99.90;;;8.11;100.00;101173.38;5038852;28;20484;-80
2021/11/12 00:39:37;;;;;;;42.45;24.77;;;7.10;99.90;;;7.97;100.00;101178.28;5057144;28;20388;-79
2021/11/12 00:44:34;;;;;;;49.20;28.23;;;7.00;99.90;;;7.91;100.00;101166.53;5056365;28;20079;-81
2021/11/12 00:47:03;;;;;;;55.10;28.88;;;6.90;99.90;;;7.82;100.00;101168.50;5056543;28;20082;-80
2021/11/12 00:49:33;;;;;;;52.10;29.60;;;6.90;99.90;;;7.78;100.00;101159.16;5038019;28;20467;-81
2021/11/12 00:52:04;;;;;;;53.83;29.65;;;6.80;99.90;;;7.72;100.00;101159.66;5056558;28;20120;-81
2021/11/12 00:54:29;;;;;;;51.60;28.77;;;6.80;99.90;;;7.64;100.00;101161.25;5055511;28;20112;-81
2021/11/12 00:56:56;;;;;;;63.38;31.15;;;6.70;99.90;;;7.61;100.00;101163.91;5055881;28;20036;-80
2021/11/12 00:59:22;;;;;;;56.72;29.30;;;6.60;99.90;;;7.61;100.00;101163.91;5038280;28;20442;-82
2021/11/12 01:01:49;;;;;;;54.55;28.23;;;6.60;99.90;;;7.55;100.00;101160.44;5055344;28;20101;-81
2021/11/12 01:04:21;;;;;;;50.25;29.30;;;6.60;99.90;;;7.51;100.00;101162.25;5037811;28;20032;-78
2021/11/12 01:06:49;;;;;;;49.95;27.45;;;6.60;99.90;;;7.43;100.00;101157.50;5021661;28;20036;-81
2021/11/12 01:09:21;;;;;;;51.10;27.92;;;6.50;99.90;;;7.40;100.00;101163.69;5014472;28;20455;-78
2021/11/12 01:11:50;;;;;;;57.25;28.75;;;6.40;99.90;;;7.36;100.00;101155.19;5025339;28;20055;-80
2021/11/12 01:14:25;;;;;;;49.70;26.90;;;6.40;99.90;;;7.32;100.00;101153.41;5057759;28;20032;-81
2021/11/12 01:16:52;;;;;;;63.05;28.65;;;6.40;99.90;;;7.29;100.00;101151.25;5059057;28;20028;-79
2021/11/12 01:19:19;;;;;;;46.95;26.75;;;6.40;99.90;;;7.19;100.00;101154.34;5075909;28;20036;-80
2021/11/12 01:21:46;;;;;;;59.10;28.15;;;6.30;99.90;;;7.08;100.00;101150.22;5058516;28;20024;-83
2021/11/12 01:24:12;;;;;;;50.38;27.90;;;6.20;99.90;;;7.05;100.00;101156.44;5050301;28;20053;-82
2021/11/12 01:26:39;;;;;;;46.95;27.02;;;6.20;99.90;;;7.05;100.00;101146.13;5076257;28;20456;-80
2021/11/12 01:29:05;;;;;;;50.75;28.45;;;6.20;99.90;;;7.09;100.00;101140.75;5076180;28;20048;-81
2021/11/12 01:31:31;;;;;;;60.65;28.52;;;6.20;99.90;;;7.13;100.00;101141.72;5074791;28;20037;-82
2021/11/12 01:34:07;;;;;;;54.78;29.23;;;6.20;99.90;;;7.10;100.00;101134.88;5058174;28;20025;-81
2021/11/12 01:36:40;;;;;;;56.03;29.52;;;6.20;99.90;;;7.14;100.00;101137.81;5058907;28;20029;-79
2021/11/12 01:39:19;;;;;;;50.03;28.38;;;6.20;99.90;;;7.13;100.00;101136.19;5057437;28;20119;-80
2021/11/12 01:41:52;;;;;;;52.58;27.10;;;6.20;99.90;;;7.08;100.00;101130.78;5058629;28;20054;-81
2021/11/12 01:44:30;;;;;;;50.05;27.50;;;6.20;99.90;;;7.07;100.00;101126.34;5057251;28;20035;-80
2021/11/12 01:50:04;;;;;;;51.22;26.90;;;6.10;99.90;;;6.85;100.00;101111.44;5032802;28;20075;-80
2021/11/12 01:52:43;;;;;;;51.80;27.35;;;6.00;99.90;;;6.77;100.00;101115.03;5068033;28;20578;-80
2021/11/12 01:55:39;;;;;;;55.50;29.42;;;5.90;99.90;;;6.77;100.00;101122.53;5057305;28;20215;-81
2021/11/12 02:00:32;;;;;;;55.40;28.17;;;5.80;99.90;;;6.69;100.00;101121.34;5075005;28;20066;-81
2021/11/12 02:02:59;;;;;;;58.42;29.00;;;5.80;99.90;;;6.65;100.00;101105.66;5056892;28;20483;-81
2021/11/12 02:05:26;;;;;;;46.95;27.35;;;5.70;99.90;;;6.58;100.00;101097.78;5040489;28;20040;-79
2021/11/12 02:07:53;;;;;;;56.25;29.02;;;5.70;99.90;;;6.49;100.00;101096.94;5074088;28;20028;-80
2021/11/12 02:10:38;;;;;;;53.10;29.08;;;5.60;99.90;;;6.45;100.00;101090.41;5034421;28;20036;-80
2021/11/12 02:13:10;;;;;;;57.45;29.83;;;5.60;99.90;;;6.45;100.00;101081.25;5016065;28;20037;-80
2021/11/12 02:15:39;;;;;;;66.78;31.50;;;5.60;99.90;;;6.48;100.00;101080.63;5033445;28;20077;-81
2021/11/12 02:18:35;;;;;;;58.58;29.85;;;5.60;99.90;;;6.43;100.00;101075.19;5033575;28;20057;-80
2021/11/12 02:21:05;;;;;;;59.88;31.42;;;5.50;99.90;;;6.34;100.00;101077.94;5019007;28;20030;-80
2021/11/12 02:23:36;;;;;;;53.47;30.17;;;5.40;99.90;;;6.24;100.00;101076.28;5033867;28;20033;-81
2021/11/12 02:26:04;;;;;;;59.45;28.77;;;5.40;99.90;;;6.23;100.00;101073.78;5032066;28;20025;-82
2021/11/12 02:28:30;;;;;;;52.50;24.20;;;5.40;99.90;;;6.28;100.00;101079.22;5016490;28;20415;-81
2021/11/12 02:30:58;;;;;;;46.30;23.83;;;5.40;99.90;;;6.43;100.00;101076.03;5033986;28;20104;-81
2021/11/12 02:33:28;;;;;;;54.20;29.25;;;5.50;99.90;;;6.49;100.00;101077.50;5016169;28;20056;-80
2021/11/12 02:36:09;;;;;;;51.10;28.20;;;5.50;99.90;;;6.36;100.00;101075.66;5016389;28;20463;-83
2021/11/12 02:38:44;;;;;;;50.33;26.00;;;5.40;99.90;;;6.10;100.00;101066.41;5016137;28;20484;-80
2021/11/12 02:41:11;;;;;;;48.63;26.23;;;5.20;99.90;;;5.95;100.00;101069.56;5000828;28;20146;-81
2021/11/12 02:43:42;;;;;;;44.05;23.52;;;5.10;99.90;;;5.78;100.00;101068.28;5015906;28;20061;-79
2021/11/12 02:46:14;;;;;;;47.25;28.02;;;5.00;99.90;;;5.71;100.00;101069.88;5015433;28;20034;-78
2021/11/12 02:48:42;;;;;;;43.92;22.48;;;4.90;99.90;;;5.77;100.00;101061.13;5033234;28;20109;-79
2021/11/12 02:51:17;;;;;;;40.58;22.63;;;4.90;99.90;;;5.80;100.00;101073.53;5033383;28;20037;-79
2021/11/12 02:53:44;;;;;;;40.85;21.10;;;4.90;99.90;;;5.75;100.00;101060.59;4999848;28;20328;-80
2021/11/12 02:56:14;;;;;;;41.20;23.40;;;4.90;99.90;;;5.71;100.00;101059.63;5033149;28;20037;-80
2021/11/12 02:58:42;;;;;;;42.47;23.40;;;4.80;99.90;;;5.55;100.00;101061.16;5033435;28;20033;-79
2021/11/12 03:01:10;;;;;;;45.75;23.90;;;4.70;99.90;;;5.50;100.00;101065.97;5033605;28;20022;-79
2021/11/12 03:03:38;;;;;;;39.25;22.35;;;4.70;99.90;;;5.45;100.00;101060.56;5032879;28;20081;-79
2021/11/12 03:06:04;;;;;;;37.97;20.60;;;4.60;99.90;;;5.48;100.00;101048.84;5033252;28;20045;-79
2021/11/12 03:08:30;;;;;;;46.95;21.95;;;4.60;99.90;;;5.56;100.00;101046.13;5038724;28;20524;-79
2021/11/12 03:10:56;;;;;;;42.70;21.67;;;4.70;99.90;;;5.61;100.00;101037.72;5054565;28;20024;-81
2021/11/12 03:13:26;;;;;;;41.22;20.48;;;4.80;99.90;;;5.67;100.00;101043.94;5054910;28;20024;-79
2021/11/12 03:15:53;;;;;;;31.83;17.38;;;4.80;99.90;;;5.80;100.00;101030.00;5023544;28;20033;-80
2021/11/12 03:18:20;;;;;;;36.92;17.63;;;5.00;99.90;;;5.90;100.00;101036.44;5073481;28;20024;-79
2021/11/12 03:20:48;;;;;;;42.65;22.75;;;5.00;99.90;;;5.95;100.00;101034.34;5022060;28;20025;-80
2021/11/12 03:23:19;;;;;;;37.35;21.60;;;5.00;99.90;;;5.85;100.00;101034.59;5073603;28;20052;-79
2021/11/12 03:26:02;;;;;;;39.17;19.42;;;5.00;99.90;;;5.78;100.00;101042.53;5073618;28;20020;-81
2021/11/12 03:28:50;;;;;;;30.92;18.90;;;4.90;99.90;;;5.72;100.00;101044.63;5072855;28;20483;-80
2021/11/12 03:56:30;;;;;;;25.17;14.00;;;4.80;99.90;;;5.57;100.00;101022.84;5082698;28;20078;-81
2021/11/12 04:04:42;;;;;;;25.00;15.13;;;4.60;99.90;;;5.40;100.00;101019.94;5084264;28;20064;-81
2021/11/12 04:07:15;;;;;;;24.75;14.02;;;4.50;99.90;;;5.28;100.00;101026.06;5072682;28;20571;-80
2021/11/12 04:20:44;;;;;;;23.47;14.33;;;4.00;99.90;;;4.82;100.00;101019.13;5055631;28;20036;-79
2021/11/12 05:45:08;;;;;;;33.70;17.75;;;3.90;99.90;;;4.61;100.00;100939.34;5058737;28;20108;-81
2021/11/12 05:50:59;;;;;;;28.73;17.50;;;3.90;99.90;;;4.61;100.00;100942.09;5061574;28;20448;-82
2021/11/12 05:55:49;;;;;;;27.65;15.35;;;3.80;99.90;;;4.45;100.00;100924.22;5043810;28;20046;-81
2021/11/12 05:58:15;;;;;;;25.55;14.20;;;3.70;99.90;;;4.37;100.00;100924.94;5057871;28;20404;-82
2021/11/12 06:00:41;;;;;;;27.90;16.67;;;3.60;99.90;;;4.35;100.00;100927.19;5040577;28;20037;-82
2021/11/12 06:03:07;;;;;;;30.33;15.73;;;3.60;99.90;;;4.31;100.00;100920.63;5040586;28;20025;-81
2021/11/12 06:05:35;;;;;;;33.30;16.45;;;3.50;99.90;;;4.24;100.00;100914.72;5058508;28;20440;-82
2021/11/12 06:08:01;;;;;;;31.20;17.05;;;3.50;99.90;;;4.19;100.00;100917.59;5057938;28;20413;-83
2021/11/12 06:10:31;;;;;;;34.97;17.80;;;3.50;99.90;;;4.19;100.00;100906.53;5021018;28;20108;-81
2021/11/12 06:12:56;;;;;;;35.05;18.05;;;3.60;99.90;;;4.30;100.00;100893.31;5020172;28;20040;-80
2021/11/12 06:15:23;;;;;;;34.72;18.50;;;3.60;99.90;;;4.35;100.00;100894.00;5019741;28;20037;-83
2021/11/12 06:17:48;;;;;;;32.33;17.15;;;3.70;99.90;;;4.44;100.00;100891.31;5036198;28;20045;-82
2021/11/12 06:20:16;;;;;;;36.33;19.33;;;3.70;99.90;;;4.55;100.00;100888.03;5038748;28;20388;-83
2021/11/12 06:22:42;;;;;;;33.03;17.48;;;3.90;99.90;;;4.56;100.00;100894.38;5020516;28;20033;-83
2021/11/12 06:25:10;;;;;;;33.38;18.20;;;3.80;99.90;;;4.62;100.00;100891.16;5037084;28;20029;-82
2021/11/12 06:27:35;;;;;;;32.40;17.70;;;3.90;99.90;;;4.58;100.00;100886.56;5020823;28;20393;-84
2021/11/12 06:30:05;;;;;;;34.10;17.58;;;3.80;99.90;;;4.52;100.00;100882.28;5020311;28;20033;-82
2021/11/12 06:32:32;;;;;;;36.03;19.48;;;3.80;99.90;;;4.50;100.00;100877.06;5037132;28;20056;-81
2021/11/12 06:34:58;;;;;;;34.30;18.23;;;3.90;99.90;;;4.65;100.00;100871.19;5019939;28;20040;-81
2021/11/12 06:37:23;;;;;;;38.08;18.52;;;4.00;99.90;;;4.74;100.00;100876.78;5038204;28;20029;-83
2021/11/12 06:39:50;;;;;;;36.38;19.02;;;4.00;99.90;;;4.72;100.00;100868.78;5037799;28;20029;-84
2021/11/12 06:42:22;;;;;;;36.75;18.20;;;4.00;99.90;;;4.73;100.00;100862.13;5036343;28;20029;-84
2021/11/12 06:50:23;;;;;;;36.13;18.45;;;4.00;99.90;;;4.68;100.00;100834.59;5038222;28;20048;-82
2021/11/12 06:52:50;;;;;;;38.30;19.88;;;4.00;99.90;;;4.61;100.00;100836.97;5036475;28;20041;-82
2021/11/12 06:55:17;;;;;;;38.53;19.83;;;4.00;99.90;;;4.70;100.00;100829.56;5037335;28;20124;-83
2021/11/12 06:57:46;;;;;;;33.05;18.33;;;4.00;99.90;;;4.80;100.00;100825.72;5004925;28;20042;-82
2021/11/12 07:00:19;;;;;;;31.58;17.85;;;4.00;99.90;;;4.81;100.00;100826.53;5040479;28;20117;-84
2021/11/12 07:02:47;;;;;;;31.38;17.48;;;4.00;99.90;;;4.79;100.00;100815.75;5039006;28;20060;-82
2021/11/12 07:05:15;;;;;;;26.73;15.90;;;4.00;99.90;;;4.84;100.00;100817.59;5021590;28;20400;-81
2021/11/12 07:07:42;;;;;;;31.67;17.95;;;4.00;99.90;;;4.80;100.00;100809.09;5006177;28;20033;-82
2021/11/12 07:10:10;;;;;;;30.15;17.65;;;4.10;99.90;;;4.83;100.00;100799.34;5038077;28;20591;-81
2021/11/12 07:12:36;;;;;;;36.10;18.10;;;4.00;99.90;;;4.77;100.00;100805.03;5040646;28;20164;-82
2021/11/12 07:15:03;;;;;;;32.03;17.95;;;4.00;99.90;;;4.85;100.00;100808.16;5058210;28;20064;-80
2021/11/12 07:17:29;;;;;;;32.03;18.13;;;4.10;99.90;;;4.86;100.00;100804.25;5042310;28;20042;-84
2021/11/12 07:19:55;;;;;;;35.10;19.02;;;4.20;99.90;;;5.07;100.00;100799.84;5054359;28;20076;-83
2021/11/12 07:22:21;;;;;;;33.72;18.88;;;4.30;99.90;;;5.22;100.00;100804.94;5056877;28;20044;-81
2021/11/12 07:24:48;;;;;;;35.20;19.88;;;4.40;99.90;;;5.32;100.00;100804.66;5045946;28;20025;-83
2021/11/12 07:27:15;;;;;;;33.08;18.70;;;4.40;99.90;;;5.38;100.00;100797.03;5056683;28;20479;-84
2021/11/12 07:29:44;;;;;;;32.00;17.80;;;4.50;99.90;;;5.47;100.00;100797.88;5041053;28;20071;-82
2021/11/12 07:32:12;;;;;;;28.65;17.10;;;4.60;99.90;;;5.63;100.00;100794.34;5041819;28;20055;-81
2021/11/12 07:34:39;;;;;;;26.25;17.10;;;4.80;99.90;;;5.61;100.00;100795.81;5041238;28;20029;-82
2021/11/12 07:37:10;;;;;;;26.27;16.63;;;4.80;99.90;;;5.68;100.00;100790.63;5040999;28;20036;-81
2021/11/12 07:42:28;;;;;;;27.42;16.75;;;5.10;99.90;;;6.13;100.00;100802.31;5058639;28;20094;-80
2021/11/12 07:45:07;;;;;;;25.55;15.45;;;5.20;99.90;;;6.08;100.00;100791.38;5040610;28;20029;-81
2021/11/12 07:47:34;;;;;;;23.33;15.45;;;5.30;99.90;;;6.29;100.00;100793.16;5039820;28;20488;-80
2021/11/12 07:50:07;;;;;;;25.52;15.68;;;5.40;99.90;;;6.59;100.00;100787.78;5040298;28;20055;-82
2021/11/12 07:52:38;;;;;;;25.67;14.48;;;5.60;99.90;;;6.54;100.00;100776.84;5024759;28;20029;-81
2021/11/12 07:55:20;;;;;;;21.77;14.43;;;5.70;99.90;;;6.55;100.00;100759.06;5058083;28;20033;-81
2021/11/12 07:57:47;;;;;;;22.35;14.43;;;5.90;99.90;;;6.70;100.00;100748.25;5039784;28;20075;-81
2021/11/12 08:00:13;;;;;;;22.13;14.77;;;6.00;99.90;;;6.94;100.00;100749.66;5040880;28;20032;-83
2021/11/12 08:02:39;;;;;;;21.58;13.00;;;6.20;99.90;;;7.00;100.00;100754.69;5054223;28;20414;-82
2021/11/12 08:05:22;;;;;;;20.10;14.30;;;6.20;99.90;;;7.25;100.00;100755.75;5077221;28;20025;-82
2021/11/12 08:07:49;;;;;;;22.70;13.63;;;6.40;99.90;;;7.51;100.00;100759.25;5046326;28;20440;-83
2021/11/12 08:10:19;;;;;;;19.90;13.35;;;6.60;99.90;;;7.55;100.00;100765.75;5043832;28;20025;-81
2021/11/12 08:12:56;;;;;;;21.20;13.35;;;6.70;99.90;;;7.99;99.75;100761.56;5059665;28;20035;-81
2021/11/12 08:18:06;;;;;;;16.92;11.15;;;7.10;99.90;;;8.53;96.27;100756.06;5058921;28;20032;-84
2021/11/12 08:21:10;;;;;;;16.48;11.75;;;7.30;99.90;;;8.44;95.89;100756.94;5041490;28;20087;-82
2021/11/12 08:23:31;;;;;;;15.80;11.45;;;7.40;99.90;;;8.77;95.11;100756.13;5055090;28;20094;-83
2021/11/12 08:26:17;;;;;;;18.15;11.82;;;7.60;99.90;;;8.75;93.81;100761.25;5058977;28;20496;-83
2021/11/12 08:39:24;;;;;;;19.05;11.35;;;8.10;99.90;;;9.41;90.74;100753.59;5041362;28;20040;-82
2021/11/12 08:41:57;;;;;;;18.10;11.15;;;8.30;99.90;;;9.60;90.01;100767.75;5058446;28;20029;-82
2021/11/12 08:44:33;;;;;;;17.20;11.63;;;8.40;99.90;;;10.13;89.05;100771.44;5058723;28;20040;-81
2021/11/12 08:47:44;;;;;;;17.35;11.82;;;8.80;99.90;;;10.42;87.35;100774.75;5040488;28;20124;-81
2021/11/12 08:49:49;;;;;;;15.75;10.60;;;9.00;99.90;;;10.75;86.22;100774.53;5052814;28;20036;-82
2021/11/12 08:52:18;;;;;;;15.73;11.38;;;9.30;99.90;;;10.94;84.35;100768.25;5058393;28;20053;-81
2021/11/12 08:54:47;;;;;;;16.60;10.88;;;9.50;99.90;;;11.10;83.04;100769.91;5057791;28;20429;-82
2021/11/12 08:57:15;;;;;;;16.15;11.25;;;9.60;99.90;;;11.32;82.62;100764.88;5024677;28;20091;-81
2021/11/12 08:59:46;;;;;;;18.15;11.13;;;9.80;99.90;;;11.52;80.42;100777.78;5040042;28;20029;-82
2021/11/12 09:02:19;;;;;;;15.70;10.55;;;10.00;99.90;;;11.60;79.86;100766.38;5040056;28;20408;-82
2021/11/12 09:04:48;;;;;;;16.55;11.43;;;10.10;99.90;;;11.59;78.92;100787.13;5007581;28;20025;-82
2021/11/12 09:07:17;;;;;;;14.38;10.60;;;10.10;99.90;;;11.66;79.25;100783.72;5040201;28;20040;-82
2021/11/12 09:09:47;;;;;;;15.07;10.75;;;10.20;99.90;;;11.65;78.35;100793.28;5010155;28;20456;-82
2021/11/12 09:12:15;;;;;;;16.52;10.88;;;10.20;99.90;;;11.70;77.56;100784.66;5037780;28;20041;-83
2021/11/12 09:14:48;;;;;;;16.33;11.43;;;10.20;99.90;;;11.63;77.51;100796.44;5036961;28;20481;-83
2021/11/12 09:17:19;;;;;;;13.38;10.75;;;10.20;99.90;;;11.15;79.29;100790.34;5037292;28;20030;-83
2021/11/12 09:19:57;;;;;;;14.75;11.05;;;10.00;99.90;;;11.31;79.04;100785.59;5019640;28;20028;-84
2021/11/12 09:22:32;;;;;;;14.13;10.60;;;10.00;99.90;;;11.52;79.28;100784.19;5004974;28;20036;-83
2021/11/12 09:24:59;;;;;;;19.77;12.10;;;10.10;99.90;;;11.74;78.55;100782.75;5020348;28;20025;-83
2021/11/12 09:27:25;;;;;;;14.15;11.20;;;10.20;99.90;;;11.68;78.15;100784.16;5036122;28;20187;-82
2021/11/12 09:29:51;;;;;;;16.00;11.73;;;10.20;99.90;;;11.69;77.81;100794.16;5037356;28;20037;-82
2021/11/12 09:32:18;;;;;;;16.05;11.23;;;10.30;99.90;;;11.82;77.09;100792.09;5036660;28;20059;-82
2021/11/12 09:34:47;;;;;;;13.82;10.82;;;10.30;99.90;;;11.53;76.00;100788.59;5036401;28;20036;-82
2021/11/12 09:37:21;;;;;;;16.15;11.80;;;10.20;99.90;;;11.16;78.56;100790.03;5036135;28;20049;-83
2021/11/12 09:39:56;;;;;;;17.83;11.45;;;9.90;99.90;;;11.04;80.14;100787.31;5037313;28;20492;-82
2021/11/12 09:42:29;;;;;;;20.45;12.65;;;9.80;99.90;;;11.23;79.95;100779.03;5019645;28;20026;-82
2021/11/12 09:45:00;;;;;;;19.08;12.45;;;9.90;99.90;;;11.67;78.06;100778.94;5018895;28;20029;-82
2021/11/12 09:47:29;;;;;;;18.10;12.38;;;10.20;99.90;;;11.43;76.16;100771.56;5004456;28;20029;-82
2021/11/12 09:50:04;;;;;;;16.27;12.27;;;10.10;99.90;;;11.16;78.01;100775.22;5003170;28;20133;-82
2021/11/12 09:52:31;;;;;;;17.23;11.77;;;9.90;99.90;;;11.17;79.04;100774.88;5034990;28;20033;-82
2021/11/12 09:55:00;;;;;;;17.05;11.90;;;9.90;99.90;;;11.34;78.10;100780.09;5036176;28;20029;-83
2021/11/12 09:57:27;;;;;;;17.60;12.02;;;10.00;99.90;;;11.33;77.36;100786.88;4985984;28;20096;-81
2021/11/12 10:00:00;;;;;;;17.70;12.55;;;10.00;99.90;;;11.59;77.46;100769.56;5018201;28;20025;-83
2021/11/12 10:02:30;;;;;;;15.93;11.82;;;10.20;99.90;;;11.63;76.29;100762.03;5003328;28;20040;-82
2021/11/12 10:04:57;;;;;;;18.00;11.63;;;10.30;99.90;;;11.57;75.34;100760.72;5002261;28;20505;-83
2021/11/12 10:07:25;;;;;;;17.08;11.85;;;10.30;99.90;;;11.61;74.74;100747.63;5035636;28;20079;-82
2021/11/12 10:10:24;;;;;;;17.15;11.73;;;10.30;99.90;;;11.82;74.66;100747.34;5050505;28;20035;-82
2021/11/12 10:12:54;;;;;;;17.88;11.57;;;10.40;99.90;;;11.64;75.04;100736.53;5033837;28;20037;-81
2021/11/12 10:15:33;;;;;;;17.15;12.07;;;10.40;99.90;;;11.24;74.85;100740.72;5006494;28;20059;-83
2021/11/12 10:18:13;;;;;;;18.77;11.73;;;10.30;99.90;;;11.82;74.97;100734.16;5056079;28;20025;-82
2021/11/12 10:20:59;;;;;;;21.63;12.15;;;10.50;99.90;;;11.98;72.02;100737.72;5037838;28;20056;-83
2021/11/12 10:23:32;;;;;;;18.00;11.70;;;10.70;99.90;;;11.93;72.47;100724.03;5022408;28;20040;-83
2021/11/12 10:26:06;;;;;;;17.50;11.98;;;10.70;99.90;;;11.87;71.99;100719.09;5038447;28;20116;-84
2021/11/12 10:28:42;;;;;;;17.60;12.05;;;10.70;99.90;;;12.13;69.67;100720.09;5039528;28;20092;-83
2021/11/12 10:31:26;;;;;;;15.05;10.85;;;10.90;99.90;;;11.87;71.80;100716.28;5056438;28;20484;-82
2021/11/12 10:33:53;;;;;;;18.00;11.85;;;10.80;99.90;;;12.06;71.06;100702.31;5038228;28;20035;-81
2021/11/12 10:36:20;;;;;;;18.95;11.13;;;10.90;99.90;;;12.11;71.32;100704.81;5037816;28;20036;-82
2021/11/12 10:38:49;;;;;;;19.35;11.00;;;10.90;99.90;;;11.85;70.08;100691.44;5038645;28;20039;-84
2021/11/12 10:41:29;;;;;;;16.15;10.90;;;10.90;99.90;;;12.07;70.52;100690.75;5057120;28;20075;-83
2021/11/12 10:44:13;;;;;;;13.77;10.45;;;10.90;99.90;;;12.24;70.57;100685.88;5113657;27;20384;-82
2021/11/12 10:46:44;;;;;;;18.10;12.02;;;10.90;99.90;;;11.88;71.18;100684.34;5093348;28;20103;-82
2021/11/12 10:49:37;;;;;;;15.52;11.07;;;10.80;99.90;;;12.35;69.89;100689.72;5092504;28;20495;-83
2021/11/12 10:52:14;;;;;;;15.27;11.18;;;11.10;99.90;;;12.46;68.24;100690.75;5108065;28;20540;-81
2021/11/12 10:55:03;;;;;;;16.42;10.82;;;11.20;99.90;;;12.58;69.71;100673.78;5115589;22;20507;-78
2021/11/12 10:57:41;;;;;;;16.38;11.27;;;11.20;99.90;;;12.54;68.55;100670.09;5074066;28;20052;-78
2021/11/12 11:00:45;;;;;;;16.08;11.18;;;11.30;99.90;;;12.63;68.15;100662.25;5061181;28;20047;-78
2021/11/12 11:03:23;;;;;;;15.73;11.13;;;11.40;99.90;;;12.34;69.98;100651.69;5064218;28;20044;-77
2021/11/12 11:05:59;;;;;;;15.90;10.82;;;11.30;99.90;;;12.88;68.15;100659.91;5081402;28;20036;-77
2021/11/12 11:08:34;;;;;;;18.73;12.05;;;11.50;99.90;;;12.47;67.85;100651.16;5075345;28;20025;-78
2021/11/12 11:11:09;;;;;;;17.05;10.77;;;11.60;99.90;;;12.67;66.67;100654.75;5092105;28;20474;-77
2021/11/12 11:13:45;;;;;;;14.68;10.20;;;11.60;99.90;;;12.89;65.36;100659.56;5110119;28;20038;-80
2021/11/12 11:16:22;;;;;;;14.30;10.02;;;11.70;99.90;;;12.88;65.41;100655.13;5109508;28;20031;-79
2021/11/12 11:18:56;;;;;;;15.75;10.32;;;11.70;99.90;;;12.85;65.08;100657.84;5091728;28;20038;-78
2021/11/12 11:23:58;;;;;;;15.07;10.73;;;11.90;99.90;;;13.27;63.82;100646.59;5108194;28;20546;-78
2021/11/12 11:26:36;;;;;;;15.77;10.57;;;12.00;99.90;;;12.94;64.52;100636.81;5109593;28;20030;-81
2021/11/12 11:29:07;;;;;;;17.70;11.15;;;11.90;99.90;;;12.99;64.12;100621.66;5091437;28;20459;-78
2021/11/12 11:31:34;;;;;;;14.35;9.48;;;11.90;99.90;;;13.07;64.31;100618.59;5111030;28;20040;-81
2021/11/12 11:34:04;;;;;;;13.68;10.25;;;11.90;99.90;;;13.07;63.59;100613.00;5108818;28;20397;-81
2021/11/12 11:36:37;;;;;;;13.55;10.10;;;12.00;99.90;;;13.06;64.13;100599.38;5092068;28;20433;-78
2021/11/12 11:39:13;;;;;;;14.18;10.13;;;12.00;99.90;;;12.68;65.04;100597.53;5109029;28;20115;-76
2021/11/12 11:41:43;;;;;;;15.50;10.68;;;11.90;99.90;;;12.92;63.98;100594.31;5113518;28;20043;-78
2021/11/12 11:44:19;;;;;;;15.82;10.13;;;11.90;99.90;;;13.16;62.91;100590.34;5120829;28;20035;-77
2021/11/12 11:46:50;;;;;;;13.95;9.07;;;12.00;99.90;;;13.01;61.56;100588.44;5122740;28;20058;-78
2021/11/12 11:49:24;;;;;;;15.75;9.18;;;12.10;99.90;;;13.09;62.38;100581.81;5114170;28;20027;-79
2021/11/12 11:52:02;;;;;;;16.08;9.68;;;12.00;99.90;;;13.39;62.55;100582.66;5092939;28;20024;-80
2021/11/12 11:54:45;;;;;;;14.10;9.43;;;12.20;99.90;;;13.49;61.46;100584.00;5117270;28;20019;-80
2021/11/12 11:57:22;;;;;;;13.68;9.15;;;12.30;99.90;;;13.78;61.04;100593.63;5106627;28;20024;-80
2021/11/12 12:00:09;;;;;;;11.90;7.90;;;12.50;99.90;;;14.23;60.92;100596.19;5098371;28;20043;-81
2021/11/12 12:02:34;;;;;;;;;;;12.80;99.90;;;14.50;59.69;100585.69;5077466;28;20032;-79
2021/11/12 12:05:06;;;;;;;13.73;7.95;;;13.00;99.90;;;14.43;60.12;100580.78;5095653;28;20015;-79
2021/11/12 12:07:55;;;;;;;13.32;8.77;;;13.10;99.90;;;14.43;58.24;100588.41;5094900;28;20180;-79
2021/11/12 12:10:27;;;;;;;12.50;8.70;;;13.10;99.90;;;14.58;57.47;100584.53;5075968;28;20029;-77
2021/11/12 12:13:02;;;;;;;13.00;8.75;;;13.10;99.90;;;14.35;58.02;100584.72;5056772;28;20396;-79
2021/11/12 12:15:37;;;;;;;13.73;8.55;;;13.10;99.90;;;14.18;57.16;100574.06;5056626;28;20562;-76
2021/11/12 12:18:20;;;;;;;14.25;9.10;;;13.10;99.90;;;14.22;57.30;100570.09;5056795;28;20032;-78
2021/11/12 12:21:35;;;;;;;14.85;8.73;;;13.00;99.90;;;14.29;56.66;100568.56;5074385;28;20028;-84
2021/11/12 12:36:20;;;;;;;14.35;9.10;;;13.00;99.90;;;14.35;57.21;100551.03;5074527;28;20032;-80
2021/11/12 13:26:05;;;;;;;15.15;9.20;;;11.90;99.90;;;13.19;60.05;100488.63;5121891;28;20027;-85
2021/11/12 13:28:44;;;;;;;18.55;10.27;;;11.90;99.90;;;12.68;61.35;100491.03;5105323;28;20020;-85
2021/11/12 13:31:24;;;;;;;15.10;8.38;;;11.80;99.90;;;12.95;61.55;100486.22;5121297;28;20096;-83
2021/11/12 13:33:56;;;;;;;13.07;8.10;;;11.80;99.90;;;12.91;61.22;100480.56;5121642;28;20482;-83
2021/11/12 13:36:45;;;;;;;17.02;9.57;;;11.80;99.90;;;12.68;61.57;100482.63;5119339;28;20039;-82
2021/11/12 13:39:19;;;;;;;15.90;10.45;;;11.70;99.90;;;12.72;60.92;100477.06;5102080;28;20036;-84
2021/11/12 13:41:58;;;;;;;16.60;9.05;;;11.70;99.90;;;12.74;60.74;100471.91;5100917;28;20065;-82
2021/11/12 13:44:35;;;;;;;15.40;9.45;;;11.70;99.90;;;12.54;61.86;100474.00;5100541;28;20546;-86
2021/11/12 13:47:08;;;;;;;18.23;9.25;;;11.50;99.90;;;12.48;61.35;100465.09;5118748;28;20514;-83
2021/11/12 13:49:53;;;;;;;16.27;9.70;;;11.50;99.90;;;12.38;61.63;100460.13;5116354;28;20028;-83
2021/11/12 13:52:33;;;;;;;14.45;8.68;;;11.40;99.90;;;12.37;61.68;100452.91;5117073;28;20221;-86
2021/11/12 13:55:16;;;;;;;14.82;8.68;;;11.30;99.90;;;12.10;62.60;100449.25;5099805;28;20020;-84
2021/11/12 13:58:04;;;;;;;12.80;9.02;;;11.20;99.90;;;12.07;63.15;100430.38;5119634;28;20080;-84
2021/11/12 14:00:31;;;;;;;13.77;8.75;;;11.10;99.90;;;12.14;63.27;100440.91;5102377;28;20051;-82
2021/11/12 14:03:18;;;;;;;14.55;9.95;;;11.10;99.90;;;11.88;64.21;100447.25;5120112;28;20138;-84
2021/11/12 14:06:04;;;;;;;13.43;9.13;;;11.00;99.90;;;11.95;64.37;100449.34;5102410;28;20427;-84
2021/11/12 14:08:45;;;;;;;16.38;9.15;;;11.00;99.90;;;11.75;64.45;100445.00;5100620;28;20028;-83
2021/11/12 14:11:29;;;;;;;15.60;9.27;;;10.90;99.90;;;11.85;64.35;100456.38;5081965;28;20028;-84
2021/11/12 14:14:13;;;;;;;16.13;9.50;;;10.90;99.90;;;11.82;64.45;100448.72;5099139;28;20028;-84
2021/11/12 14:17:04;;;;;;;19.73;8.80;;;10.80;99.90;;;11.85;64.30;100439.59;5081868;28;20066;-85
2021/11/12 14:22:37;;;;;;;15.95;9.27;;;10.70;99.90;;;11.45;64.93;100440.00;5104185;28;20043;-86
2021/11/12 14:25:42;;;;;;;15.75;8.95;;;10.60;99.90;;;11.51;64.39;100426.53;5085222;28;20028;-84
2021/11/12 14:31:05;;;;;;;12.27;8.32;;;10.50;99.90;;;11.52;65.38;100416.97;5101765;28;20451;-84
2021/11/12 14:36:41;;;;;;;14.27;8.82;;;10.40;99.90;;;11.41;65.89;100413.94;4998788;28;20101;-84